KHON

Huron Regional Airport

Huron, South Dakota, USA
METAR KHON 191455Z AUTO 34009KT 7SM FEW110 21/18 A2987 RMK AO2 SLP108 T02110183 50010
Observed Flight Rules
Aug-19 @ 14:55 UTC (43 minutes ago) Visual Flight Rules
Wind Visibility Clouds
340° at 9 knots 7 miles
  • Few at 11,000' AGL
Temperatures Readings
Current 21°C / 70°F
Dewpoint 18°C / 64°F
Humidity 83%
Altimeter 29.87" Hg
Pressure 1010.8 hPa
Elevation 390
METAR KHON 191455Z AUTO 34009KT 7SM FEW110 21/18 A2987 RMK AO2 SLP108 T02110183 50010
Observed Flight Rules
Aug-19 @ 14:55 UTC
(43 minutes ago)
VFR
Wind Visibility
340° at 9 knots 7 miles
Clouds
  • Few at 11,000' AGL
Temperature Dewpoint
21°C / 70°F 18°C / 64°F
Humidity Altimeter Pressure
83% 29.87" Hg 1010.8 hPa